Time;durP1;ratioP1;P1;durP2;ratioP2;P2;SDS_P1;SDS_P2;PMS_P1;PMS_P2;Temp;Humidity;BMP_temperature;BMP_pressure;BME280_temperature;BME280_humidity;BME280_pressure;Samples;Min_cycle;Max_cycle;Signal;HPM_P1;HPM_P2
2022/03/04 00:01:10;;;;;;;67.05;49.53;;;4.60;70.40;;;;;;5075525;28;20063;-74
2022/03/04 00:03:36;;;;;;;61.25;47.95;;;4.60;70.50;;;;;;5071190;28;20374;-75
2022/03/04 00:06:01;;;;;;;61.97;45.85;;;4.50;70.60;;;;;;5073187;28;20040;-74
2022/03/04 00:08:27;;;;;;;63.70;45.45;;;4.50;70.80;;;;;;5073167;28;20047;-73
2022/03/04 00:10:53;;;;;;;60.65;45.30;;;4.50;70.90;;;;;;5070961;28;20382;-75
2022/03/04 00:13:18;;;;;;;58.45;43.13;;;4.40;71.00;;;;;;5071188;28;20035;-74
2022/03/04 00:15:44;;;;;;;57.72;40.70;;;4.40;71.00;;;;;;5073562;28;20276;-73
2022/03/04 00:18:10;;;;;;;58.75;43.45;;;4.30;71.00;;;;;;5073835;28;20594;-74
2022/03/04 00:20:35;;;;;;;59.65;44.50;;;4.30;70.90;;;;;;5069726;28;20075;-74
2022/03/04 00:23:01;;;;;;;58.20;42.67;;;4.30;71.10;;;;;;5071614;28;20159;-74
2022/03/04 00:25:27;;;;;;;57.42;42.17;;;4.20;71.10;;;;;;5069753;28;20037;-74
2022/03/04 00:27:52;;;;;;;56.67;41.40;;;4.20;71.20;;;;;;5072962;28;20039;-74
2022/03/04 00:30:19;;;;;;;57.97;43.20;;;4.20;71.30;;;;;;5073340;28;20048;-74
2022/03/04 00:32:44;;;;;;;53.85;40.80;;;4.10;71.50;;;;;;5070807;28;20037;-73
2022/03/04 00:35:11;;;;;;;53.85;39.47;;;4.10;71.80;;;;;;5070473;28;20040;-74
2022/03/04 00:37:36;;;;;;;52.95;40.00;;;4.10;71.80;;;;;;5076262;28;20369;-74
2022/03/04 00:40:04;;;;;;;57.00;41.20;;;4.10;71.80;;;;;;5068945;28;20029;-74
2022/03/04 00:42:30;;;;;;;58.35;41.90;;;4.00;71.70;;;;;;5072215;28;20038;-74
2022/03/04 00:44:56;;;;;;;53.20;37.80;;;4.10;71.70;;;;;;5071927;28;20043;-74
2022/03/04 00:47:22;;;;;;;49.05;37.08;;;4.00;71.50;;;;;;5071446;28;20070;-74
2022/03/04 00:49:47;;;;;;;50.92;39.35;;;4.00;71.50;;;;;;5069856;28;20114;-74
2022/03/04 00:52:13;;;;;;;57.58;41.70;;;3.90;71.30;;;;;;5074669;28;20058;-75
2022/03/04 00:54:38;;;;;;;55.10;42.85;;;3.90;71.10;;;;;;5068885;28;20028;-75
2022/03/04 00:57:04;;;;;;;57.10;43.03;;;3.90;71.20;;;;;;5072904;28;20045;-74
2022/03/04 00:59:30;;;;;;;57.25;41.28;;;3.90;71.30;;;;;;5073888;28;20348;-73
2022/03/04 01:01:55;;;;;;;55.95;42.38;;;3.90;71.40;;;;;;5074560;28;20044;-75
2022/03/04 01:04:21;;;;;;;57.17;40.78;;;3.90;71.60;;;;;;5068465;28;20036;-73
2022/03/04 01:06:47;;;;;;;52.95;42.13;;;3.80;71.70;;;;;;5070894;28;20463;-75
2022/03/04 01:09:13;;;;;;;57.10;41.40;;;3.80;71.90;;;;;;5071336;28;20060;-74
2022/03/04 01:11:39;;;;;;;54.47;40.40;;;3.80;72.00;;;;;;5073323;28;20072;-75
2022/03/04 01:14:08;;;;;;;52.05;39.38;;;3.70;72.10;;;;;;5074097;28;20115;-73
2022/03/04 01:16:34;;;;;;;55.75;39.63;;;3.70;72.20;;;;;;5069687;28;20085;-74
2022/03/04 01:19:00;;;;;;;52.00;38.97;;;3.70;72.40;;;;;;5070158;28;20047;-73
2022/03/04 01:21:26;;;;;;;48.85;34.28;;;3.60;72.40;;;;;;5071478;28;20036;-75
2022/03/04 01:23:52;;;;;;;46.08;31.55;;;3.60;70.90;;;;;;5072377;28;20467;-74
2022/03/04 01:26:17;;;;;;;44.20;31.38;;;3.60;69.50;;;;;;5068776;28;20032;-74
2022/03/04 01:28:43;;;;;;;43.05;30.73;;;3.70;68.50;;;;;;5072771;28;20040;-74
2022/03/04 01:31:10;;;;;;;43.78;30.90;;;3.80;67.60;;;;;;5069401;28;20042;-74
2022/03/04 01:33:36;;;;;;;43.88;30.98;;;3.80;67.60;;;;;;5071082;28;20024;-75
2022/03/04 01:36:02;;;;;;;41.22;31.20;;;3.80;67.70;;;;;;5069306;28;20032;-74
2022/03/04 01:38:28;;;;;;;41.53;30.52;;;3.80;67.90;;;;;;5069843;28;20031;-75
2022/03/04 01:40:54;;;;;;;41.05;30.20;;;3.80;68.30;;;;;;5066589;28;20036;-74
2022/03/04 01:43:19;;;;;;;39.53;29.98;;;3.70;68.10;;;;;;5071544;28;20470;-74
2022/03/04 01:45:45;;;;;;;41.38;28.83;;;3.80;67.20;;;;;;5072827;28;20897;-73
2022/03/04 01:48:12;;;;;;;43.58;30.58;;;3.90;66.80;;;;;;5069628;28;20525;-74
2022/03/04 01:50:37;;;;;;;41.67;31.15;;;3.80;67.00;;;;;;5070070;28;20044;-74
2022/03/04 01:53:03;;;;;;;41.20;29.20;;;3.90;66.80;;;;;;5070610;28;20081;-74
2022/03/04 01:55:29;;;;;;;38.47;28.98;;;3.80;66.80;;;;;;5070746;28;20031;-74
2022/03/04 01:57:55;;;;;;;40.95;29.90;;;3.80;67.00;;;;;;5067634;28;20787;-75
2022/03/04 02:00:20;;;;;;;41.20;28.83;;;3.80;66.90;;;;;;5070914;28;20547;-74
2022/03/04 02:02:47;;;;;;;42.25;29.33;;;3.80;66.80;;;;;;5076228;28;20040;-74
2022/03/04 02:05:18;;;;;;;41.13;29.60;;;3.80;66.60;;;;;;5072391;28;20031;-74
2022/03/04 02:07:44;;;;;;;40.63;28.20;;;3.80;66.70;;;;;;5068771;28;20458;-74
2022/03/04 02:10:10;;;;;;;40.35;28.10;;;3.80;66.90;;;;;;5071257;28;20047;-75
2022/03/04 02:12:37;;;;;;;40.70;29.52;;;3.80;67.10;;;;;;5069167;28;20043;-74
2022/03/04 02:15:04;;;;;;;38.50;29.77;;;3.70;67.20;;;;;;5069032;28;20051;-75
2022/03/04 02:17:31;;;;;;;39.90;28.15;;;3.70;67.40;;;;;;5071890;28;20029;-73
2022/03/04 02:19:57;;;;;;;40.80;28.08;;;3.70;67.40;;;;;;5071267;28;20399;-74
2022/03/04 02:22:24;;;;;;;38.05;28.90;;;3.60;67.40;;;;;;5068846;28;20128;-74
2022/03/04 02:24:50;;;;;;;40.42;27.75;;;3.60;67.40;;;;;;5074833;28;20491;-74
2022/03/04 02:27:16;;;;;;;43.40;30.17;;;3.60;67.60;;;;;;5067404;28;20028;-75
2022/03/04 02:29:42;;;;;;;37.80;27.63;;;3.60;67.60;;;;;;5071644;28;20097;-74
2022/03/04 02:32:08;;;;;;;40.17;28.70;;;3.60;67.80;;;;;;5067171;28;20040;-74
2022/03/04 02:34:34;;;;;;;44.42;30.42;;;3.60;67.70;;;;;;5071187;28;20482;-74
2022/03/04 02:37:00;;;;;;;42.00;29.45;;;3.50;67.80;;;;;;5071083;28;20150;-74
2022/03/04 02:39:25;;;;;;;40.92;30.02;;;3.50;68.00;;;;;;5071592;28;20458;-74
2022/03/04 02:41:52;;;;;;;39.13;28.67;;;3.50;68.20;;;;;;5070061;28;20411;-73
2022/03/04 02:44:17;;;;;;;37.95;29.48;;;3.40;68.30;;;;;;5068208;28;20891;-74
2022/03/04 02:46:44;;;;;;;41.58;28.40;;;3.40;68.30;;;;;;5065721;28;20049;-73
2022/03/04 02:49:11;;;;;;;40.25;29.52;;;3.40;68.30;;;;;;5070380;28;20040;-74
2022/03/04 02:51:37;;;;;;;36.60;27.60;;;3.40;68.30;;;;;;5068129;28;20063;-75
2022/03/04 02:54:04;;;;;;;43.00;28.25;;;3.50;68.20;;;;;;5067412;28;20330;-73
2022/03/04 02:56:29;;;;;;;40.72;30.48;;;3.40;68.20;;;;;;5068929;28;20115;-73
2022/03/04 02:58:55;;;;;;;36.60;28.42;;;3.40;68.50;;;;;;5069064;28;20097;-74
2022/03/04 03:01:21;;;;;;;39.38;28.67;;;3.30;68.70;;;;;;5069401;28;20726;-74
2022/03/04 03:03:46;;;;;;;39.35;29.63;;;3.30;68.80;;;;;;5070785;28;20084;-75
2022/03/04 03:06:12;;;;;;;37.92;27.85;;;3.30;68.90;;;;;;5071648;28;20040;-74
2022/03/04 03:08:38;;;;;;;37.65;27.60;;;3.20;69.10;;;;;;5075858;28;20148;-74
2022/03/04 03:11:04;;;;;;;38.22;28.98;;;3.20;69.40;;;;;;5098216;28;20040;-74
2022/03/04 03:13:31;;;;;;;39.97;28.80;;;3.20;69.60;;;;;;5074049;28;20036;-73
2022/03/04 03:15:57;;;;;;;39.90;29.10;;;3.20;69.50;;;;;;5074928;28;20139;-74
2022/03/04 03:18:22;;;;;;;38.92;28.50;;;3.10;69.60;;;;;;5073581;28;20029;-73
2022/03/04 03:20:48;;;;;;;40.50;28.10;;;3.10;69.60;;;;;;5069086;28;20040;-73
2022/03/04 03:23:13;;;;;;;43.22;31.23;;;3.10;69.50;;;;;;5071082;28;20119;-74
2022/03/04 03:25:39;;;;;;;43.67;31.70;;;3.10;69.50;;;;;;5073530;28;20148;-74
2022/03/04 03:28:05;;;;;;;44.45;31.08;;;3.10;69.80;;;;;;5070881;28;20036;-74
2022/03/04 03:30:31;;;;;;;40.55;29.95;;;3.10;69.80;;;;;;5073374;28;20063;-73
2022/03/04 03:32:57;;;;;;;41.78;31.10;;;3.10;70.00;;;;;;5072244;28;20360;-74
2022/03/04 03:35:23;;;;;;;41.58;30.75;;;3.00;69.90;;;;;;5072957;28;20043;-73
2022/03/04 03:37:49;;;;;;;39.58;29.65;;;3.00;70.10;;;;;;5073461;28;20043;-74
2022/03/04 03:40:15;;;;;;;41.15;30.02;;;2.90;70.30;;;;;;5069193;28;20560;-74
2022/03/04 03:42:40;;;;;;;41.15;29.73;;;2.90;70.40;;;;;;5072907;28;20647;-74
2022/03/04 03:45:08;;;;;;;42.38;30.55;;;2.90;70.40;;;;;;5072404;28;20032;-73
2022/03/04 03:47:33;;;;;;;41.97;30.25;;;2.90;70.20;;;;;;5074860;28;20132;-73
2022/03/04 03:50:00;;;;;;;41.50;29.33;;;2.90;70.40;;;;;;5073034;28;20500;-73
2022/03/04 03:52:26;;;;;;;41.42;28.58;;;2.80;70.60;;;;;;5072509;28;20391;-74
2022/03/04 03:54:52;;;;;;;41.10;30.40;;;2.80;70.80;;;;;;5071482;28;20163;-74
2022/03/04 03:57:18;;;;;;;42.88;29.70;;;2.80;70.80;;;;;;5075179;28;20027;-73
2022/03/04 03:59:44;;;;;;;45.72;31.05;;;2.80;71.00;;;;;;5069541;28;20654;-74
2022/03/04 04:02:09;;;;;;;40.22;29.13;;;2.70;71.00;;;;;;5071454;28;20067;-74
2022/03/04 04:04:35;;;;;;;44.90;30.65;;;2.70;71.20;;;;;;5067775;28;20391;-74
2022/03/04 04:07:03;;;;;;;45.05;31.05;;;2.70;71.40;;;;;;5073117;28;20040;-74
2022/03/04 04:09:29;;;;;;;41.08;30.27;;;2.60;71.50;;;;;;5079790;28;20032;-73
2022/03/04 04:11:55;;;;;;;40.33;30.85;;;2.60;71.70;;;;;;5085797;28;20058;-73
2022/03/04 04:14:20;;;;;;;40.63;30.15;;;2.60;71.90;;;;;;5068041;28;20063;-74
2022/03/04 04:16:46;;;;;;;42.15;30.23;;;2.60;72.00;;;;;;5075260;28;20381;-74
2022/03/04 04:19:12;;;;;;;42.13;30.75;;;2.60;72.00;;;;;;5073102;28;20052;-73
2022/03/04 04:21:39;;;;;;;41.55;30.70;;;2.60;72.10;;;;;;5073455;28;20078;-74
2022/03/04 04:24:05;;;;;;;43.25;30.08;;;2.50;72.20;;;;;;5071917;28;20519;-75
2022/03/04 04:26:31;;;;;;;43.38;30.38;;;2.50;72.30;;;;;;5069412;28;20033;-74
2022/03/04 04:28:57;;;;;;;39.83;28.23;;;2.50;72.50;;;;;;5071798;28;20032;-73
2022/03/04 04:31:23;;;;;;;42.25;31.50;;;2.40;72.60;;;;;;5066800;28;20050;-73
2022/03/04 04:33:50;;;;;;;40.13;31.60;;;2.50;72.70;;;;;;5075269;28;20501;-73
2022/03/04 04:36:16;;;;;;;44.67;31.88;;;2.40;72.70;;;;;;5082840;28;20610;-73
2022/03/04 04:38:42;;;;;;;43.35;31.77;;;2.40;72.80;;;;;;5083066;28;20037;-73
2022/03/04 04:41:08;;;;;;;43.17;31.67;;;2.30;72.90;;;;;;5073778;28;20035;-74
2022/03/04 04:43:35;;;;;;;43.00;31.33;;;2.20;73.00;;;;;;5073290;28;20293;-73
2022/03/04 04:46:02;;;;;;;49.30;33.88;;;2.10;73.30;;;;;;5069498;28;20431;-74
2022/03/04 04:48:27;;;;;;;43.33;32.00;;;2.10;73.40;;;;;;5073030;28;20037;-73
2022/03/04 04:50:53;;;;;;;44.08;32.22;;;2.10;73.70;;;;;;5071939;28;20040;-73
2022/03/04 04:53:19;;;;;;;41.28;30.60;;;2.00;73.80;;;;;;5072625;28;20085;-74
2022/03/04 04:55:44;;;;;;;40.95;31.00;;;2.00;74.10;;;;;;5070938;28;20109;-74
2022/03/04 04:58:10;;;;;;;40.55;29.58;;;2.00;74.20;;;;;;5086942;27;20039;-74
2022/03/04 05:00:36;;;;;;;44.63;31.30;;;2.00;74.40;;;;;;5076457;28;20044;-74
2022/03/04 05:03:02;;;;;;;40.05;29.88;;;2.00;74.40;;;;;;5078479;28;20040;-73
2022/03/04 05:05:27;;;;;;;40.58;29.52;;;2.00;74.50;;;;;;5099532;28;20031;-74
2022/03/04 05:07:53;;;;;;;43.63;31.25;;;2.00;74.60;;;;;;5068069;28;20037;-73
2022/03/04 05:10:19;;;;;;;46.28;30.98;;;2.00;74.60;;;;;;5072842;28;20072;-74
2022/03/04 05:12:44;;;;;;;40.22;29.02;;;2.00;74.70;;;;;;5062974;28;20451;-73
2022/03/04 05:15:10;;;;;;;40.05;29.67;;;2.00;74.80;;;;;;5069483;28;20058;-73
2022/03/04 05:17:36;;;;;;;47.97;31.58;;;1.90;74.90;;;;;;5071116;28;20058;-73
2022/03/04 05:20:02;;;;;;;45.92;30.90;;;1.90;75.00;;;;;;5073447;28;20533;-74
2022/03/04 05:22:28;;;;;;;45.67;32.67;;;1.80;75.20;;;;;;5072118;28;20060;-73
2022/03/04 05:24:53;;;;;;;44.88;31.75;;;1.90;75.40;;;;;;5072158;28;20408;-72
2022/03/04 05:27:19;;;;;;;42.30;31.08;;;1.80;75.40;;;;;;5071545;28;20035;-73
2022/03/04 05:29:44;;;;;;;43.42;30.95;;;1.80;75.40;;;;;;5075380;28;20048;-73
2022/03/04 05:32:10;;;;;;;45.13;30.67;;;1.80;75.50;;;;;;5073078;28;20036;-73
2022/03/04 05:34:37;;;;;;;44.17;30.60;;;1.80;75.60;;;;;;5072071;28;20058;-74
2022/03/04 05:37:03;;;;;;;43.33;30.70;;;1.80;75.60;;;;;;5070202;28;20046;-73
2022/03/04 05:39:29;;;;;;;41.08;29.73;;;1.80;75.60;;;;;;5071026;28;20635;-73
2022/03/04 05:41:55;;;;;;;42.03;31.02;;;1.70;75.80;;;;;;5071396;28;20066;-73
2022/03/04 05:44:21;;;;;;;43.17;31.58;;;1.80;76.00;;;;;;5071243;28;20040;-73
2022/03/04 05:46:46;;;;;;;48.90;32.88;;;1.80;76.10;;;;;;5073089;28;20117;-74
2022/03/04 05:49:12;;;;;;;45.08;32.58;;;1.80;76.20;;;;;;5070647;28;20044;-74
2022/03/04 05:51:38;;;;;;;43.65;31.30;;;1.70;76.20;;;;;;5071380;28;20047;-73
2022/03/04 05:54:04;;;;;;;46.38;32.25;;;1.70;76.30;;;;;;5067962;28;20483;-73
2022/03/04 05:56:29;;;;;;;44.63;32.40;;;1.70;76.40;;;;;;5063240;28;20043;-73
2022/03/04 05:58:55;;;;;;;43.80;30.75;;;1.70;76.20;;;;;;5070901;28;20068;-74
2022/03/04 06:01:21;;;;;;;43.92;31.63;;;1.70;76.30;;;;;;5071249;28;20047;-75
2022/03/04 06:03:47;;;;;;;43.13;31.30;;;1.60;76.30;;;;;;5070883;28;20374;-73
2022/03/04 06:06:13;;;;;;;42.53;30.50;;;1.60;76.50;;;;;;5067070;28;20032;-73
2022/03/04 06:08:39;;;;;;;44.83;31.65;;;1.60;76.60;;;;;;5072306;28;20111;-75
2022/03/04 06:11:09;;;;;;;47.15;31.70;;;1.60;76.80;;;;;;5071898;28;20056;-74
2022/03/04 06:13:36;;;;;;;45.67;34.47;;;1.60;76.80;;;;;;5070716;28;20790;-74
2022/03/04 06:16:03;;;;;;;44.72;32.25;;;1.50;76.80;;;;;;5077759;28;20425;-74
2022/03/04 06:18:28;;;;;;;45.00;32.40;;;1.50;76.90;;;;;;5073602;28;20040;-73
2022/03/04 06:20:54;;;;;;;48.75;35.83;;;1.50;77.00;;;;;;5070811;28;20153;-73
2022/03/04 06:23:21;;;;;;;53.90;36.08;;;1.40;77.10;;;;;;5069657;28;20071;-74
2022/03/04 06:25:47;;;;;;;52.80;36.15;;;1.40;77.30;;;;;;5070114;28;20028;-73
2022/03/04 06:28:12;;;;;;;53.05;35.42;;;1.40;77.80;;;;;;5071134;28;20043;-74
2022/03/04 06:30:38;;;;;;;50.42;34.97;;;1.40;78.00;;;;;;5068886;28;20051;-74
2022/03/04 06:35:51;;;;;;;53.13;37.20;;;1.40;77.80;;;;;;5066044;28;20058;-73
2022/03/04 06:38:17;;;;;;;58.85;40.28;;;1.40;77.80;;;;;;5075377;28;20455;-73
2022/03/04 06:40:43;;;;;;;55.13;36.33;;;1.40;77.90;;;;;;5080814;28;20077;-74
2022/03/04 06:43:09;;;;;;;49.50;34.10;;;1.40;77.80;;;;;;5071218;28;20037;-74
2022/03/04 06:45:38;;;;;;;53.80;35.95;;;1.50;77.90;;;;;;5068898;28;20454;-74
2022/03/04 06:48:04;;;;;;;49.47;34.70;;;1.50;78.00;;;;;;5088398;28;20039;-73
2022/03/04 06:50:30;;;;;;;49.53;34.70;;;1.60;77.90;;;;;;5089938;28;20043;-74
2022/03/04 06:52:56;;;;;;;48.60;34.00;;;1.60;77.90;;;;;;5088619;28;20036;-75
2022/03/04 06:55:22;;;;;;;50.85;34.17;;;1.60;78.00;;;;;;5085483;28;20162;-74
2022/03/04 06:57:50;;;;;;;48.92;33.90;;;1.70;77.90;;;;;;5067176;28;20032;-73
2022/03/04 07:00:16;;;;;;;50.45;33.60;;;1.70;77.90;;;;;;5068778;28;20035;-73
2022/03/04 07:02:41;;;;;;;49.17;34.10;;;1.80;77.80;;;;;;5069685;28;20041;-74
2022/03/04 07:05:08;;;;;;;49.90;34.10;;;1.90;77.70;;;;;;5069767;28;20040;-73
2022/03/04 07:07:34;;;;;;;49.38;34.60;;;2.00;77.70;;;;;;5071586;28;20056;-74
2022/03/04 07:10:00;;;;;;;47.67;35.08;;;2.00;77.60;;;;;;5071771;28;20043;-73
2022/03/04 07:12:26;;;;;;;48.15;32.53;;;2.10;77.60;;;;;;5069888;28;20048;-73
2022/03/04 07:14:52;;;;;;;48.50;34.72;;;2.10;77.50;;;;;;5070586;28;20035;-73
2022/03/04 07:17:18;;;;;;;58.60;35.47;;;2.20;77.40;;;;;;5067302;28;20052;-73
2022/03/04 07:19:44;;;;;;;47.38;34.05;;;2.20;77.40;;;;;;5067567;28;20534;-74
2022/03/04 07:22:10;;;;;;;48.78;33.40;;;2.30;77.50;;;;;;5073369;28;20032;-75
2022/03/04 07:24:36;;;;;;;48.58;33.35;;;2.40;77.40;;;;;;5071517;28;20028;-73
2022/03/04 07:27:02;;;;;;;49.20;34.08;;;2.40;77.30;;;;;;5077464;28;20559;-73
2022/03/04 07:29:27;;;;;;;47.83;33.83;;;2.50;77.40;;;;;;5070137;28;20071;-74
2022/03/04 07:31:54;;;;;;;51.25;33.78;;;2.50;77.40;;;;;;5068350;28;20123;-74
2022/03/04 07:34:21;;;;;;;50.80;35.53;;;2.60;77.30;;;;;;5069593;28;20123;-73
2022/03/04 07:36:47;;;;;;;52.85;35.28;;;2.70;77.20;;;;;;5067326;28;20592;-73
2022/03/04 07:39:13;;;;;;;48.00;33.38;;;2.70;77.10;;;;;;5067603;28;20032;-73
2022/03/04 07:41:39;;;;;;;47.13;34.25;;;2.80;77.20;;;;;;5066143;28;20353;-73
2022/03/04 07:44:05;;;;;;;48.47;35.80;;;2.90;77.10;;;;;;5065831;28;20123;-74
2022/03/04 07:46:31;;;;;;;52.55;34.63;;;2.90;76.90;;;;;;5082453;28;20100;-74
2022/03/04 07:48:57;;;;;;;49.63;35.83;;;3.00;76.90;;;;;;5069067;28;20051;-72
2022/03/04 07:51:23;;;;;;;45.42;33.90;;;3.10;76.90;;;;;;5067051;28;20059;-73
2022/03/04 07:53:48;;;;;;;49.15;34.30;;;3.10;76.80;;;;;;5069611;28;20062;-73
2022/03/04 07:56:14;;;;;;;49.15;35.45;;;3.20;76.70;;;;;;5089001;28;20044;-74
2022/03/04 07:58:40;;;;;;;53.60;35.30;;;3.40;76.60;;;;;;5071223;28;20039;-77
2022/03/04 08:01:06;;;;;;;49.65;34.63;;;3.40;76.40;;;;;;5088260;28;20037;-77
2022/03/04 08:03:32;;;;;;;53.65;36.78;;;3.50;76.30;;;;;;5076458;28;20036;-76
2022/03/04 08:05:57;;;;;;;47.35;34.28;;;3.60;76.00;;;;;;5075781;28;20289;-75
2022/03/04 08:08:23;;;;;;;48.97;34.97;;;3.80;76.00;;;;;;5073464;28;20100;-76
2022/03/04 08:10:49;;;;;;;50.08;36.00;;;3.90;75.90;;;;;;5074476;28;20051;-77
2022/03/04 08:13:15;;;;;;;50.88;36.38;;;4.10;75.60;;;;;;5069012;28;20028;-76
2022/03/04 08:15:41;;;;;;;48.30;34.47;;;4.20;75.20;;;;;;5073550;28;20082;-74
2022/03/04 08:18:07;;;;;;;53.33;35.30;;;4.30;75.10;;;;;;5071690;28;20088;-76
2022/03/04 08:20:33;;;;;;;46.13;33.60;;;4.50;75.20;;;;;;5074913;28;20720;-76
2022/03/04 08:22:59;;;;;;;45.97;32.92;;;4.60;74.50;;;;;;5071761;28;20040;-78
2022/03/04 08:25:25;;;;;;;47.72;33.53;;;4.80;74.40;;;;;;5065427;28;20058;-74
2022/03/04 08:27:52;;;;;;;44.58;32.30;;;5.10;74.10;;;;;;5075296;28;20123;-77
2022/03/04 08:30:18;;;;;;;48.22;35.17;;;5.30;73.40;;;;;;5072120;28;20058;-73
2022/03/04 08:32:44;;;;;;;46.33;34.22;;;5.60;72.80;;;;;;5070200;28;20040;-77
2022/03/04 08:35:10;;;;;;;45.08;32.42;;;5.70;71.80;;;;;;5068035;28;20122;-80
2022/03/04 08:37:37;;;;;;;48.22;32.92;;;6.00;70.60;;;;;;5073478;28;20485;-82
2022/03/04 08:40:10;;;;;;;45.72;33.22;;;6.10;70.70;;;;;;5072237;28;20094;-79
2022/03/04 08:42:38;;;;;;;43.78;32.85;;;6.40;69.80;;;;;;5074329;28;20040;-78
2022/03/04 08:45:04;;;;;;;45.47;33.97;;;6.60;69.80;;;;;;5072087;28;20028;-78
2022/03/04 08:47:30;;;;;;;48.05;35.75;;;6.90;68.70;;;;;;5071206;28;20185;-74
2022/03/04 08:49:55;;;;;;;45.70;33.88;;;7.10;68.00;;;;;;5072043;28;21232;-79
2022/03/04 08:52:21;;;;;;;55.72;37.72;;;7.20;67.00;;;;;;5069765;28;20068;-76
2022/03/04 08:54:47;;;;;;;51.35;35.78;;;7.40;66.80;;;;;;5071022;28;20032;-76
2022/03/04 08:57:13;;;;;;;53.22;35.10;;;7.50;66.20;;;;;;5071716;28;20044;-78
2022/03/04 08:59:39;;;;;;;48.80;34.47;;;7.60;66.00;;;;;;5071906;28;20067;-81
2022/03/04 09:02:05;;;;;;;45.78;33.15;;;7.90;65.60;;;;;;5072286;28;20032;-78
2022/03/04 09:04:31;;;;;;;45.17;32.65;;;8.00;65.00;;;;;;5070745;28;20031;-74
2022/03/04 09:06:57;;;;;;;41.33;30.40;;;8.20;65.00;;;;;;5073097;28;20048;-74
2022/03/04 09:09:22;;;;;;;40.55;30.10;;;8.50;64.90;;;;;;5063812;28;20047;-74
2022/03/04 09:11:48;;;;;;;42.35;29.02;;;8.60;62.80;;;;;;5071124;28;20451;-78
2022/03/04 09:14:15;;;;;;;39.15;27.15;;;8.80;63.20;;;;;;5072605;28;20069;-76
2022/03/04 09:16:41;;;;;;;39.00;28.33;;;9.00;61.90;;;;;;5068550;28;20054;-75
2022/03/04 09:19:07;;;;;;;38.25;28.00;;;9.10;57.30;;;;;;5075803;28;20395;-77
2022/03/04 09:21:33;;;;;;;36.33;27.77;;;9.20;56.90;;;;;;5068574;28;20447;-74
2022/03/04 09:23:59;;;;;;;34.95;25.83;;;9.50;57.00;;;;;;5071702;28;20154;-82
2022/03/04 09:26:26;;;;;;;36.15;27.08;;;9.70;55.00;;;;;;5071071;28;20128;-76
2022/03/04 09:28:52;;;;;;;31.30;24.17;;;9.90;55.70;;;;;;5072542;28;20586;-75
2022/03/04 09:31:18;;;;;;;31.08;23.27;;;10.10;52.10;;;;;;5072854;27;20032;-75
2022/03/04 09:33:44;;;;;;;30.42;23.25;;;10.10;51.20;;;;;;5073177;28;20087;-75
2022/03/04 09:36:12;;;;;;;31.25;22.05;;;10.20;48.90;;;;;;5070275;28;20046;-75
2022/03/04 09:38:38;;;;;;;31.75;22.33;;;10.30;47.90;;;;;;5073053;28;20566;-76
2022/03/04 09:41:05;;;;;;;27.42;20.80;;;10.40;48.10;;;;;;5076782;28;20036;-74
2022/03/04 09:43:31;;;;;;;29.27;20.83;;;10.50;46.50;;;;;;5072513;28;20036;-75
2022/03/04 09:45:57;;;;;;;30.40;20.23;;;10.60;46.20;;;;;;5073931;28;20160;-73
2022/03/04 09:48:23;;;;;;;32.00;20.95;;;10.60;45.70;;;;;;5068749;28;20046;-74
2022/03/04 09:50:49;;;;;;;31.83;21.13;;;10.70;45.80;;;;;;5068673;28;20113;-75
2022/03/04 09:53:16;;;;;;;30.25;21.48;;;10.60;44.20;;;;;;5067759;28;20067;-73
2022/03/04 09:55:43;;;;;;;27.05;20.27;;;10.70;44.80;;;;;;5069464;28;20374;-74
2022/03/04 09:58:11;;;;;;;27.70;21.13;;;10.80;45.60;;;;;;5065508;28;20040;-74
2022/03/04 10:00:37;;;;;;;27.23;20.40;;;11.00;45.10;;;;;;5070651;28;20806;-74
2022/03/04 10:03:05;;;;;;;29.63;21.58;;;11.10;44.70;;;;;;5065050;28;20043;-72
2022/03/04 10:05:31;;;;;;;29.10;21.77;;;11.20;44.20;;;;;;5079776;28;20032;-76
2022/03/04 10:07:56;;;;;;;30.52;21.48;;;11.20;44.50;;;;;;5074031;28;20036;-74
2022/03/04 10:10:22;;;;;;;29.15;21.13;;;11.10;43.40;;;;;;5087492;28;20124;-75
2022/03/04 10:12:57;;;;;;;33.40;22.35;;;11.10;44.40;;;;;;5089553;28;20048;-72
2022/03/04 10:15:26;;;;;;;29.13;21.52;;;11.30;44.50;;;;;;5076225;28;20519;-75
2022/03/04 10:18:04;;;;;;;31.23;22.58;;;11.40;44.10;;;;;;5077210;28;20040;-73
2022/03/04 10:20:38;;;;;;;32.35;22.80;;;11.40;44.00;;;;;;5077386;28;20067;-72
2022/03/04 10:23:10;;;;;;;29.65;21.85;;;11.50;43.90;;;;;;5078467;28;20031;-72
2022/03/04 10:25:36;;;;;;;31.80;21.75;;;11.60;43.90;;;;;;5070400;28;20044;-73
2022/03/04 10:28:10;;;;;;;28.92;22.17;;;11.70;43.70;;;;;;5077208;28;20032;-72
2022/03/04 10:30:36;;;;;;;29.38;23.02;;;11.80;44.60;;;;;;5077586;28;20044;-71
2022/03/04 10:33:11;;;;;;;29.65;22.90;;;11.80;43.70;;;;;;5079163;28;20497;-73
2022/03/04 10:35:38;;;;;;;31.90;22.40;;;11.70;43.70;;;;;;5075294;28;20543;-73
2022/03/04 10:38:05;;;;;;;29.98;23.30;;;11.80;43.40;;;;;;5077659;28;20123;-73
2022/03/04 10:40:42;;;;;;;33.38;24.17;;;11.80;44.50;;;;;;5080049;28;20036;-74
2022/03/04 10:43:10;;;;;;;30.05;23.55;;;11.90;44.30;;;;;;5075747;28;20058;-73
2022/03/04 10:45:43;;;;;;;33.50;25.10;;;12.00;44.90;;;;;;5071707;28;20036;-73
2022/03/04 10:48:11;;;;;;;30.55;24.25;;;12.10;44.20;;;;;;5071400;28;20043;-74
2022/03/04 10:50:42;;;;;;;33.08;24.27;;;12.10;44.80;;;;;;5077376;28;20043;-75
2022/03/04 10:53:11;;;;;;;31.05;24.30;;;12.30;45.20;;;;;;5070784;28;20113;-73
2022/03/04 10:55:45;;;;;;;28.58;22.48;;;12.40;44.30;;;;;;5075144;28;20521;-73
2022/03/04 10:58:24;;;;;;;31.60;23.50;;;12.60;44.80;;;;;;5066517;28;20051;-72
2022/03/04 11:00:53;;;;;;;31.08;23.33;;;12.60;44.70;;;;;;5073471;28;20036;-73
2022/03/04 11:03:23;;;;;;;30.98;23.90;;;12.60;45.10;;;;;;5066192;28;20369;-73
2022/03/04 11:05:50;;;;;;;32.22;24.17;;;12.60;44.40;;;;;;5072057;28;20047;-74
2022/03/04 11:08:16;;;;;;;41.47;24.60;;;12.60;44.00;;;;;;5073715;28;20046;-74
2022/03/04 11:10:42;;;;;;;34.42;23.90;;;12.60;44.80;;;;;;5074485;28;20051;-73
2022/03/04 11:13:10;;;;;;;31.92;24.65;;;12.60;44.10;;;;;;5071137;28;20468;-74
2022/03/04 11:15:37;;;;;;;34.22;24.38;;;12.70;44.90;;;;;;5065869;28;20604;-75
2022/03/04 11:18:09;;;;;;;35.42;24.67;;;12.80;44.20;;;;;;5068132;28;20028;-75
2022/03/04 11:20:36;;;;;;;32.83;24.45;;;12.70;45.00;;;;;;5079057;28;20051;-75
2022/03/04 11:23:03;;;;;;;32.83;24.60;;;12.80;44.30;;;;;;5071865;28;20056;-75
2022/03/04 11:25:40;;;;;;;34.40;23.27;;;12.90;45.50;;;;;;5069673;28;20070;-74
2022/03/04 11:28:18;;;;;;;35.80;25.67;;;13.00;45.20;;;;;;5062293;28;20028;-76
2022/03/04 11:30:46;;;;;;;35.78;25.30;;;13.00;45.30;;;;;;5070288;28;20113;-76
2022/03/04 11:33:30;;;;;;;33.17;25.05;;;13.00;44.10;;;;;;5077039;28;20028;-75
2022/03/04 11:36:07;;;;;;;34.33;25.17;;;12.90;45.00;;;;;;5077278;28;20350;-74
2022/03/04 11:38:48;;;;;;;33.88;26.13;;;12.80;44.80;;;;;;5073082;28;20130;-75
2022/03/04 11:41:35;;;;;;;36.20;26.08;;;12.90;44.80;;;;;;5073107;28;20071;-76
2022/03/04 11:44:17;;;;;;;36.70;25.67;;;12.70;45.10;;;;;;5070378;28;20521;-74
2022/03/04 11:46:46;;;;;;;34.03;26.00;;;12.70;45.70;;;;;;5072430;28;20070;-74
2022/03/04 11:49:24;;;;;;;35.72;25.15;;;12.80;45.50;;;;;;5070883;28;20495;-73
2022/03/04 11:52:12;;;;;;;32.20;24.25;;;12.90;45.30;;;;;;5075064;28;20134;-75
2022/03/04 11:54:39;;;;;;;30.70;23.33;;;13.10;44.70;;;;;;5071841;28;20033;-75
2022/03/04 11:57:34;;;;;;;32.50;24.85;;;13.20;45.60;;;;;;5070964;28;20329;-74
2022/03/04 12:00:20;;;;;;;32.20;24.08;;;13.30;44.70;;;;;;5072177;28;20411;-77
2022/03/04 12:02:48;;;;;;;34.28;24.42;;;13.40;44.50;;;;;;5073474;28;20554;-74
2022/03/04 12:05:23;;;;;;;31.23;24.38;;;13.50;45.00;;;;;;5069074;28;20051;-74
2022/03/04 12:08:09;;;;;;;34.35;25.20;;;13.70;44.90;;;;;;5071926;28;20101;-74
2022/03/04 12:10:47;;;;;;;33.67;25.15;;;13.70;43.80;;;;;;5072366;28;20509;-74
2022/03/04 12:13:18;;;;;;;30.27;23.70;;;13.60;43.90;;;;;;5069957;28;20040;-74
2022/03/04 12:15:48;;;;;;;30.73;24.83;;;13.60;43.90;;;;;;5072174;28;20039;-73
2022/03/04 12:18:33;;;;;;;32.65;25.10;;;13.70;44.10;;;;;;5070068;28;20520;-74
2022/03/04 12:21:02;;;;;;;36.22;24.50;;;13.80;43.50;;;;;;5073403;28;20055;-74
2022/03/04 12:23:33;;;;;;;36.85;26.85;;;13.90;42.80;;;;;;5066011;28;20119;-73
2022/03/04 12:25:58;;;;;;;34.15;25.65;;;13.90;43.30;;;;;;5067879;28;20028;-73
2022/03/04 12:28:26;;;;;;;35.30;25.90;;;14.00;43.90;;;;;;5070052;28;20184;-74
2022/03/04 12:31:01;;;;;;;37.50;27.85;;;13.80;43.50;;;;;;5068794;28;20070;-75
2022/03/04 12:33:29;;;;;;;36.85;28.42;;;13.70;44.10;;;;;;5069675;28;20040;-73
2022/03/04 12:35:57;;;;;;;36.33;27.15;;;13.60;43.90;;;;;;5071038;28;20574;-74